Time;durP1;ratioP1;P1;durP2;ratioP2;P2;SDS_P1;SDS_P2;PMS_P1;PMS_P2;Temp;Humidity;BMP_temperature;BMP_pressure;BME280_temperature;BME280_humidity;BME280_pressure;Samples;Min_cycle;Max_cycle;Signal;HPM_P1;HPM_P2
2022/04/04 00:00:11;;;;;;;6.50;2.93;;;;;;;1.77;100.00;126222.09;5029873;28;20026;-70
2022/04/04 00:02:37;;;;;;;6.67;3.60;;;;;;;1.72;100.00;126211.13;5032573;28;20385;-70
2022/04/04 00:05:03;;;;;;;9.00;3.30;;;;;;;1.81;100.00;126228.66;5041547;28;20242;-70
2022/04/04 00:07:28;;;;;;;5.73;2.67;;;;;;;1.75;100.00;126550.06;5032077;28;20524;-70
2022/04/04 00:09:54;;;;;;;9.50;4.00;;;;;;;1.71;100.00;126873.66;5026359;28;20026;-70
2022/04/04 00:12:20;;;;;;;7.60;3.10;;;;;;;1.64;100.00;128187.81;5037375;28;20084;-70
2022/04/04 00:14:46;;;;;;;5.80;3.40;;;;;;;1.77;100.00;129878.78;5025059;28;20029;-70
2022/04/04 00:17:12;;;;;;;8.80;3.77;;;;;;;1.77;100.00;130212.63;5031765;28;20489;-71
2022/04/04 00:19:39;;;;;;;10.13;4.00;;;;;;;1.70;100.00;130529.50;5015258;28;20022;-71
2022/04/04 00:22:04;;;;;;;8.57;3.27;;;;;;;1.77;100.00;131543.81;5023044;28;20035;-71
2022/04/04 00:24:30;;;;;;;7.73;3.80;;;;;;;1.74;100.00;131869.81;5016390;28;20432;-70
2022/04/04 00:26:56;;;;;;;8.13;3.37;;;;;;;1.72;100.00;132863.97;5029020;28;20465;-71
2022/04/04 00:29:21;;;;;;;7.20;3.23;;;;;;;1.73;100.00;133865.28;5029947;28;20029;-70
2022/04/04 00:31:47;;;;;;;6.83;3.70;;;;;;;1.76;100.00;134538.47;5031838;28;20052;-70
2022/04/04 00:34:12;;;;;;;7.57;3.50;;;;;;;1.75;100.00;135202.44;5019696;28;20149;-70
2022/04/04 00:36:39;;;;;;;6.53;3.40;;;;;;;1.76;100.00;135871.25;5020272;28;20079;-70
2022/04/04 00:39:04;;;;;;;7.93;3.90;;;;;;;1.75;100.00;136202.16;5036226;28;20029;-70
2022/04/04 00:41:30;;;;;;;14.50;4.50;;;;;;;1.75;100.00;136868.78;5048037;28;20038;-70
2022/04/04 00:43:55;;;;;;;9.03;3.83;;;;;;;1.69;100.00;137187.81;5023436;28;20553;-71
2022/04/04 00:46:21;;;;;;;5.83;3.70;;;;;;;1.64;100.00;138176.00;5042547;28;20477;-70
2022/04/04 00:48:47;;;;;;;7.67;3.57;;;;;;;1.73;100.00;139198.16;5039616;28;20100;-71
2022/04/04 00:51:12;;;;;;;8.03;4.00;;;;;;;1.68;100.00;139519.56;5032034;28;20699;-71
2022/04/04 00:53:39;;;;;;;7.97;3.80;;;;;;;1.82;100.00;140219.69;5031509;28;20025;-71
2022/04/04 00:56:04;;;;;;;8.30;4.00;;;;;;;1.77;100.00;139873.81;5031755;28;20488;-71
2022/04/04 00:58:30;;;;;;;6.13;2.87;;;;;;;1.74;100.00;139866.53;5034174;28;20025;-71
2022/04/04 01:00:57;;;;;;;8.63;3.60;;;;;;;1.87;100.00;140230.63;5041365;28;20060;-71
2022/04/04 01:03:23;;;;;;;11.00;4.13;;;;;;;1.87;100.00;139563.25;5039352;28;20091;-71
2022/04/04 01:05:48;;;;;;;10.80;4.10;;;;;;;1.79;100.00;138877.88;5047735;28;20028;-71
2022/04/04 01:08:15;;;;;;;10.13;4.10;;;;;;;1.80;100.00;139212.66;5030073;28;20034;-71
2022/04/04 01:10:41;;;;;;;8.23;4.00;;;;;;;1.80;100.00;139212.66;5027601;28;20033;-71
2022/04/04 01:13:07;;;;;;;8.27;4.67;;;;;;;1.76;100.00;138871.84;5041929;28;20030;-72
2022/04/04 01:15:32;;;;;;;9.27;4.00;;;;;;;1.75;100.00;139201.78;5024808;28;20392;-71
2022/04/04 01:17:59;;;;;;;12.37;4.43;;;;;;;1.86;100.00;139560.81;5035867;28;20033;-71
2022/04/04 01:20:24;;;;;;;8.57;4.53;;;;;;;1.81;100.00;138881.47;5041716;28;20028;-71
2022/04/04 01:22:50;;;;;;;7.33;3.37;;;;;;;1.88;100.00;138898.41;5046892;28;20421;-71
2022/04/04 01:25:23;;;;;;;7.73;4.70;;;;;;;1.82;100.00;138218.06;5027197;28;20365;-71
2022/04/04 01:27:48;;;;;;;7.90;3.50;;;;;;;1.86;100.00;138226.44;5037617;28;20057;-71
2022/04/04 01:30:14;;;;;;;8.17;4.13;;;;;;;1.90;100.00;137569.00;5023783;28;20555;-71
2022/04/04 01:32:39;;;;;;;6.60;4.00;;;;;;;1.85;100.00;136891.41;5031332;28;20099;-71
2022/04/04 01:35:05;;;;;;;8.90;3.80;;;;;;;1.99;100.00;136257.81;5029199;28;20107;-71
2022/04/04 01:37:32;;;;;;;6.23;2.63;;;;;;;1.94;100.00;135579.25;5040407;28;20044;-71
2022/04/04 01:39:58;;;;;;;7.33;3.47;;;;;;;1.97;100.00;134919.69;5013666;28;20021;-71
2022/04/04 01:42:24;;;;;;;9.03;4.50;;;;;;;1.91;100.00;133906.00;5034872;28;20614;-71
2022/04/04 01:44:50;;;;;;;9.97;4.70;;;;;;;1.89;100.00;133900.19;5034766;28;20150;-71
2022/04/04 01:47:16;;;;;;;12.97;4.87;;;;;;;1.81;100.00;133881.53;5041470;28;20037;-71
2022/04/04 01:49:42;;;;;;;7.73;4.43;;;;;;;1.82;100.00;134216.97;5036834;28;20123;-71
2022/04/04 01:52:07;;;;;;;9.13;4.97;;;;;;;1.80;100.00;134213.50;5036582;28;20048;-71
2022/04/04 01:54:33;;;;;;;13.07;4.63;;;;;;;1.83;100.00;134552.50;5017124;28;20469;-71
2022/04/04 01:56:58;;;;;;;8.37;4.70;;;;;;;1.81;100.00;134547.78;5033657;28;20033;-71
2022/04/04 01:59:23;;;;;;;7.53;4.37;;;;;;;1.82;100.00;134216.97;5024353;28;20092;-71
2022/04/04 02:01:49;;;;;;;11.57;4.80;;;;;;;1.85;100.00;134224.03;5020141;28;20033;-71
2022/04/04 02:04:14;;;;;;;10.67;3.90;;;;;;;1.80;100.00;134545.47;5013857;28;20553;-71
2022/04/04 02:06:40;;;;;;;11.13;4.87;;;;;;;1.79;100.00;134544.28;5039798;28;20111;-71
2022/04/04 02:09:06;;;;;;;9.33;4.50;;;;;;;1.75;100.00;134536.13;5021402;28;20037;-71
2022/04/04 02:11:32;;;;;;;5.40;3.03;;;;;;;1.84;100.00;135221.25;5016824;28;20025;-71
2022/04/04 02:13:58;;;;;;;9.90;4.93;;;;;;;1.77;100.00;134207.66;5023242;28;20492;-71
2022/04/04 02:16:25;;;;;;;8.40;4.20;;;;;;;1.84;100.00;134556.03;5036902;28;20388;-71
2022/04/04 02:18:50;;;;;;;8.60;4.50;;;;;;;1.75;100.00;134203.00;5036039;28;20042;-71
2022/04/04 02:21:16;;;;;;;8.37;4.70;;;;;;;1.77;100.00;134206.50;5033681;28;20127;-71
2022/04/04 02:23:42;;;;;;;10.30;4.50;;;;;;;1.73;100.00;134198.34;5028202;28;20124;-71
2022/04/04 02:26:07;;;;;;;7.63;3.80;;;;;;;1.73;100.00;134531.44;5035170;28;20417;-71
2022/04/04 02:28:33;;;;;;;9.77;4.63;;;;;;;1.78;100.00;134208.84;5036167;28;20040;-71
2022/04/04 02:30:59;;;;;;;11.77;5.17;;;;;;;1.77;100.00;133874.56;5054043;28;20028;-71
2022/04/04 02:33:25;;;;;;;8.57;4.40;;;;;;;1.81;100.00;133881.53;5034168;28;20040;-71
2022/04/04 02:35:52;;;;;;;9.07;4.73;;;;;;;1.86;100.00;133228.19;5034295;28;20021;-71
2022/04/04 02:38:23;;;;;;;7.53;3.93;;;;;;;1.87;100.00;132563.28;5030763;28;20029;-71
2022/04/04 02:40:48;;;;;;;8.73;4.83;;;;;;;1.77;100.00;132209.59;5034452;28;20127;-71
2022/04/04 02:43:14;;;;;;;10.93;5.77;;;;;;;1.75;100.00;132537.91;5038524;28;20022;-70
2022/04/04 02:45:40;;;;;;;16.93;5.87;;;;;;;1.75;100.00;132869.72;5036990;28;20036;-71
2022/04/04 02:48:06;;;;;;;13.63;6.37;;;;;;;1.75;100.00;133203.88;5036407;28;20032;-70
2022/04/04 02:50:31;;;;;;;11.20;5.90;;;;;;;1.81;100.00;133215.41;5029083;28;20392;-71
2022/04/04 02:52:57;;;;;;;11.33;5.67;;;;;;;1.81;100.00;133215.41;5034163;28;20038;-70
2022/04/04 02:58:07;;;;;;;9.87;5.90;;;;;;;1.83;100.00;132888.22;5044698;28;20120;-70
2022/04/04 03:00:32;;;;;;;12.30;5.73;;;;;;;1.87;100.00;132896.28;5043158;28;20453;-70
2022/04/04 03:02:58;;;;;;;14.13;7.07;;;;;;;1.84;100.00;132890.53;5021525;28;20449;-70
2022/04/04 03:05:24;;;;;;;11.77;6.90;;;;;;;1.88;100.00;132565.56;5037970;28;20119;-70
2022/04/04 03:07:50;;;;;;;10.03;5.97;;;;;;;1.92;100.00;132574.78;5042933;28;20454;-70
2022/04/04 03:10:16;;;;;;;12.43;6.90;;;;;;;1.92;100.00;132241.75;5053210;28;20025;-70
2022/04/04 03:12:45;;;;;;;11.47;6.63;;;;;;;2.03;100.00;131934.00;5031494;28;20117;-70
2022/04/04 03:15:23;;;;;;;11.03;6.77;;;;;;;2.02;100.00;131265.72;5028320;28;20481;-70
2022/04/04 03:17:51;;;;;;;14.30;7.57;;;;;;;2.02;100.00;130599.84;5029647;28;20033;-70
2022/04/04 03:20:18;;;;;;;12.93;8.00;;;;;;;2.00;100.00;130262.44;5034623;28;20052;-70
2022/04/04 03:22:47;;;;;;;11.70;7.20;;;;;;;2.00;100.00;130263.56;5038849;28;20088;-70
2022/04/04 03:25:14;;;;;;;15.27;8.20;;;;;;;2.05;100.00;129940.88;5033023;28;20500;-70
2022/04/04 03:27:40;;;;;;;15.20;7.53;;;;;;;2.10;100.00;129951.06;5050035;28;20024;-70
2022/04/04 03:30:15;;;;;;;11.30;7.33;;;;;;;2.12;100.00;128958.16;5024814;28;20025;-70
2022/04/04 03:32:41;;;;;;;13.63;7.93;;;;;;;2.06;100.00;128944.72;5047357;28;20043;-70
2022/04/04 03:35:07;;;;;;;16.80;7.13;;;;;;;2.19;100.00;128641.03;5033083;28;20068;-70
2022/04/04 03:37:34;;;;;;;9.77;5.20;;;;;;;2.14;100.00;127630.50;5042922;28;20081;-70
2022/04/04 03:40:01;;;;;;;11.50;5.63;;;;;;;2.18;100.00;127640.53;5032442;28;20029;-70
2022/04/04 03:42:26;;;;;;;11.17;6.00;;;;;;;2.20;100.00;127312.25;5045758;28;20479;-70
2022/04/04 03:44:51;;;;;;;11.00;6.23;;;;;;;2.25;100.00;126657.91;5032673;28;20108;-70
2022/04/04 03:47:18;;;;;;;12.90;7.80;;;;;;;2.25;100.00;125659.00;5052105;28;20109;-70
2022/04/04 03:49:43;;;;;;;15.17;8.37;;;;;;;2.27;100.00;125331.88;5017428;28;20345;-70
2022/04/04 03:52:09;;;;;;;14.90;7.03;;;;;;;2.29;100.00;125336.22;5049040;28;20041;-70
2022/04/04 03:54:35;;;;;;;16.33;9.80;;;;;;;2.29;100.00;124006.25;5019753;28;20041;-70
2022/04/04 03:57:01;;;;;;;14.70;7.77;;;;;;;2.28;100.00;124004.09;5012363;28;20033;-70
2022/04/04 03:59:26;;;;;;;14.60;8.03;;;;;;;2.26;100.00;124663.63;5019576;28;20060;-70
2022/04/04 04:01:52;;;;;;;14.87;7.93;;;;;;;2.32;100.00;124345.22;5020785;28;20025;-70
2022/04/04 04:04:17;;;;;;;18.23;8.93;;;;;;;2.31;100.00;123678.19;5025348;28;20524;-70
2022/04/04 04:06:43;;;;;;;17.10;8.47;;;;;;;2.33;100.00;123350.06;5044476;28;20488;-70
2022/04/04 04:09:09;;;;;;;10.87;6.03;;;;;;;2.41;100.00;122367.91;5023430;28;20029;-70
2022/04/04 04:11:34;;;;;;;16.03;9.03;;;;;;;2.35;100.00;121692.72;5047224;28;20104;-70
2022/04/04 04:14:00;;;;;;;13.63;8.03;;;;;;;2.40;100.00;120704.50;5026556;28;20112;-70
2022/04/04 04:16:29;;;;;;;13.67;6.80;;;;;;;2.43;100.00;120046.53;5015565;28;20160;-70
2022/04/04 04:18:54;;;;;;;16.57;9.97;;;;;;;2.35;100.00;119367.78;5042596;28;20033;-70
2022/04/04 04:21:20;;;;;;;16.60;9.40;;;;;;;2.39;100.00;119375.03;5035888;28;20032;-70
2022/04/04 04:23:46;;;;;;;14.63;8.10;;;;;;;2.39;100.00;119043.00;5016102;28;20128;-70
2022/04/04 04:26:13;;;;;;;14.53;7.10;;;;;;;2.46;100.00;117729.53;5020770;28;20116;-70
2022/04/04 04:28:40;;;;;;;14.60;7.90;;;;;;;2.48;100.00;116406.13;5034135;28;20041;-70
2022/04/04 04:31:06;;;;;;;19.27;7.63;;;;;;;2.46;100.00;115075.09;5028224;28;20026;-70
2022/04/04 04:33:32;;;;;;;14.23;7.77;;;;;;;2.46;100.00;113747.66;5025174;28;20474;-70
2022/04/04 04:36:00;;;;;;;16.47;9.50;;;;;;;2.46;100.00;113085.59;5021636;28;20075;-70
2022/04/04 04:38:26;;;;;;;17.37;8.93;;;;;;;2.50;100.00;111435.31;5032974;28;20042;-70
2022/04/04 04:40:51;;;;;;;10.43;5.30;;;;;;;2.51;100.00;110112.06;5031574;28;20026;-70
2022/04/04 04:43:17;;;;;;;15.80;7.63;;;;;;;2.52;100.00;108127.09;5025632;28;20117;-70
2022/04/04 04:45:43;;;;;;;15.03;7.97;;;;;;;2.50;100.00;106800.34;5012091;28;20030;-70
2022/04/04 04:48:08;;;;;;;12.17;7.10;;;;;;;2.57;100.00;105158.06;5011977;28;20135;-70
2022/04/04 04:50:34;;;;;;;12.87;7.07;;;;;;;2.61;100.00;102189.28;5012080;28;21900;-70
2022/04/04 04:52:59;;;;;;;10.87;5.53;;;;;;;2.63;100.00;100541.34;5011943;28;20030;-70
2022/04/04 04:55:26;;;;;;;13.50;7.53;;;;;;;2.59;100.00;97892.38;5019588;28;20063;-70
2022/04/04 04:57:53;;;;;;;13.40;8.03;;;;;;;2.54;100.00;97552.88;5028903;28;20033;-70
2022/04/04 05:00:22;;;;;;;11.53;6.60;;;;;;;2.61;100.00;96244.66;5013711;28;20752;-71
2022/04/04 05:03:24;;;;;;;9.83;5.53;;;;;;;2.63;100.00;92949.72;5029307;28;20037;-70
2022/04/04 05:05:33;;;;;;;11.60;6.30;;;;;;;2.62;100.00;91300.97;5011307;28;20037;-70
2022/04/04 05:07:58;;;;;;;11.17;6.37;;;;;;;2.62;100.00;91300.97;5011778;28;20040;-70
2022/04/04 05:10:24;;;;;;;15.00;8.07;;;;;;;2.64;100.00;84391.06;5011777;28;20077;-70
2022/04/04 05:12:49;;;;;;;12.53;6.50;;;;;;;2.64;100.00;84391.06;5011681;28;20033;-70
2022/04/04 05:15:15;;;;;;;10.87;6.17;;;;;;;2.70;100.00;77827.59;5011584;28;20484;-70
2022/04/04 05:17:41;;;;;;;12.10;6.90;;;;;;;2.69;100.00;74216.59;5020143;28;20381;-70
2022/04/04 05:20:07;;;;;;;15.17;7.37;;;;;;;2.78;100.00;68002.63;5032489;28;20060;-70
2022/04/04 05:22:32;;;;;;;14.57;7.73;;;;;;;2.70;100.00;63087.31;5041879;28;20179;-70
2022/04/04 05:24:57;;;;;;;14.30;8.63;;;;;;;2.74;100.00;62110.72;5013964;28;20033;-70
2022/04/04 05:27:23;;;;;;;10.97;6.17;;;;;;;2.74;100.00;57213.03;5046029;28;20044;-70
2022/04/04 05:29:48;;;;;;;13.40;8.53;;;;;;;2.71;100.00;54926.69;5013032;28;20036;-70
2022/04/04 05:32:13;;;;;;;16.60;9.07;;;;;;;2.74;100.00;51018.75;5034987;28;20500;-70
2022/04/04 05:34:39;;;;;;;12.50;7.07;;;;;;;2.79;100.00;47442.00;5032303;28;20033;-70
2022/04/04 05:37:04;;;;;;;16.17;8.70;;;;;;;2.80;100.00;41265.81;5036329;28;20076;-71
2022/04/04 05:39:30;;;;;;;15.27;8.70;;;;;;;2.79;100.00;38343.13;5036779;28;20033;-70
2022/04/04 05:41:55;;;;;;;11.57;7.80;;;;;;;2.89;100.00;28950.59;5040997;28;20022;-70
2022/04/04 05:44:21;;;;;;;13.60;5.90;;;;;;;2.90;100.00;19577.72;5033083;28;20140;-70
2022/04/04 05:46:47;;;;;;;13.83;7.37;;;;;;;2.90;100.00;10874.84;5031313;28;20029;-71
2022/04/04 05:49:13;;;;;;;14.50;8.37;;;;;;;2.86;100.00;7978.16;5032926;28;20021;-69
2022/04/04 05:51:38;;;;;;;12.73;6.60;;;;;;;2.91;100.00;7335.88;5030557;28;20029;-69
2022/04/04 05:54:04;;;;;;;11.83;7.20;;;;;;;2.91;100.00;3158.09;5018569;28;20084;-70
2022/04/04 05:56:29;;;;;;;13.33;8.40;;;;;;;2.96;100.00;-1655.72;5011429;28;20057;-69
2022/04/04 05:58:55;;;;;;;14.23;7.20;;;;;;;3.04;100.00;-10944.25;5010589;28;20587;-69
2022/04/04 06:01:20;;;;;;;17.93;8.97;;;;;;;3.04;100.00;-19246.53;5014210;28;20117;-69
2022/04/04 06:03:46;;;;;;;13.93;8.23;;;;;;;3.09;100.00;-19247.84;5012536;28;20125;-69
2022/04/04 06:06:11;;;;;;;13.70;7.33;;;;;;;3.13;100.00;-19248.91;5011198;28;20061;-69
2022/04/04 06:08:37;;;;;;;13.97;8.13;;;;;;;3.19;100.00;-19250.63;5010776;28;20034;-69
2022/04/04 06:11:02;;;;;;;16.77;8.77;;;;;;;3.25;100.00;-19252.09;5010959;28;20091;-69
2022/04/04 06:13:27;;;;;;;13.23;8.70;;;;;;;3.28;100.00;-19252.75;5011066;28;20477;-70
2022/04/04 06:15:53;;;;;;;16.17;9.77;;;;;;;3.33;100.00;-19254.22;5011073;28;20117;-69
2022/04/04 06:18:19;;;;;;;12.60;7.63;;;;;;;3.40;100.00;-19256.09;5023421;28;20080;-69
2022/04/04 06:20:45;;;;;;;15.27;9.40;;;;;;;3.38;100.00;-19255.53;5011374;28;20402;-69
2022/04/04 06:23:11;;;;;;;10.90;6.17;;;;;;;3.39;100.00;-19255.81;5011039;28;20030;-70
2022/04/04 06:25:38;;;;;;;12.53;6.37;;;;;;;3.32;100.00;-19253.81;5011042;28;20034;-70
2022/04/04 06:28:04;;;;;;;15.40;9.30;;;;;;;3.24;100.00;-19251.84;5010945;28;20041;-70
2022/04/04 06:30:29;;;;;;;15.00;8.27;;;;;;;3.18;100.00;-19250.25;5012927;28;20033;-70
2022/04/04 06:32:55;;;;;;;11.17;6.40;;;;;;;3.09;100.00;-19247.84;5018531;28;20120;-70
2022/04/04 06:35:24;;;;;;;10.03;5.63;;;;;;;3.06;100.00;-13727.09;5014492;28;20029;-70
2022/04/04 06:37:51;;;;;;;13.60;6.20;;;;;;;3.07;100.00;4123.56;5000344;28;20021;-70
2022/04/04 06:40:17;;;;;;;15.07;8.30;;;;;;;3.04;100.00;19260.03;5014584;28;20425;-70
2022/04/04 06:42:43;;;;;;;13.97;8.13;;;;;;;3.06;100.00;29930.59;5014057;28;20045;-70
2022/04/04 06:45:11;;;;;;;11.23;6.40;;;;;;;3.01;100.00;43881.06;5014515;28;20470;-70
2022/04/04 06:47:38;;;;;;;12.70;7.30;;;;;;;2.92;100.00;52012.72;5014217;28;20021;-70
2022/04/04 06:50:04;;;;;;;15.83;8.87;;;;;;;2.87;100.00;63433.19;5014455;28;20386;-70
2022/04/04 06:52:30;;;;;;;16.27;8.63;;;;;;;2.81;100.00;76529.53;5014201;28;20163;-70
2022/04/04 06:54:56;;;;;;;17.20;7.93;;;;;;;2.79;100.00;87374.28;5014081;28;20468;-70
2022/04/04 06:57:22;;;;;;;13.03;7.43;;;;;;;2.71;100.00;95270.66;5014074;28;20033;-70
2022/04/04 06:59:48;;;;;;;9.00;5.60;;;;;;;2.69;100.00;104187.59;5013996;28;20037;-70
2022/04/04 07:02:13;;;;;;;18.30;10.30;;;;;;;2.67;100.00;111135.91;5014275;28;20014;-70
2022/04/04 07:04:40;;;;;;;12.37;6.77;;;;;;;2.69;100.00;117111.56;5013840;28;20579;-70
2022/04/04 07:07:07;;;;;;;14.67;8.27;;;;;;;2.70;100.00;121099.88;5014005;28;20084;-70
2022/04/04 07:09:32;;;;;;;14.67;9.47;;;;;;;2.69;100.00;125087.41;5014073;28;20029;-70
2022/04/04 07:11:58;;;;;;;17.03;10.87;;;;;;;2.66;100.00;129743.25;5013745;28;20021;-70
2022/04/04 07:14:24;;;;;;;15.17;8.40;;;;;;;2.60;100.00;131062.53;5013787;28;20026;-69
2022/04/04 07:16:52;;;;;;;17.43;10.47;;;;;;;2.55;100.00;133051.13;5014225;28;20030;-70
2022/04/04 07:19:19;;;;;;;13.83;8.77;;;;;;;2.53;100.00;135382.28;4995936;28;20111;-70
2022/04/04 07:21:44;;;;;;;15.63;8.70;;;;;;;2.51;100.00;138046.34;5013762;28;20022;-70
2022/04/04 07:24:10;;;;;;;15.17;8.83;;;;;;;2.51;100.00;140051.34;4995729;28;20032;-70
2022/04/04 07:26:35;;;;;;;10.93;6.33;;;;;;;2.51;100.00;141386.59;5016425;28;20029;-71
2022/04/04 07:29:01;;;;;;;14.03;6.10;;;;;;;2.53;100.00;142729.78;5013696;28;20104;-70
2022/04/04 07:31:26;;;;;;;12.00;6.80;;;;;;;2.60;100.00;143414.69;5013443;28;20547;-70
2022/04/04 07:33:52;;;;;;;11.80;6.40;;;;;;;2.70;100.00;144441.94;5013597;28;20162;-70
2022/04/04 07:36:17;;;;;;;15.63;8.43;;;;;;;2.78;100.00;144128.63;5013609;28;20474;-70
2022/04/04 07:38:43;;;;;;;14.53;8.03;;;;;;;2.84;100.00;143809.06;5024781;28;20064;-70
2022/04/04 07:41:08;;;;;;;13.33;7.00;;;;;;;2.88;100.00;142814.09;5033135;28;20028;-70
2022/04/04 07:43:34;;;;;;;14.07;7.70;;;;;;;2.99;100.00;141836.53;5032553;28;20451;-70
2022/04/04 07:46:00;;;;;;;8.70;5.20;;;;;;;3.06;100.00;139514.09;5033125;28;20026;-70
2022/04/04 07:48:26;;;;;;;13.03;7.93;;;;;;;3.17;100.00;138202.31;5014655;28;20033;-70
2022/04/04 07:50:51;;;;;;;14.47;7.00;;;;;;;3.31;100.00;136230.50;5033277;28;20055;-70
2022/04/04 07:53:18;;;;;;;9.90;6.17;;;;;;;3.44;100.00;131251.63;5014537;28;20599;-70
2022/04/04 07:55:43;;;;;;;12.73;7.33;;;;;;;3.51;100.00;125264.66;5033059;28;20082;-70
2022/04/04 07:58:09;;;;;;;10.20;5.30;;;;;;;3.56;100.00;120278.34;5017354;28;20466;-70
2022/04/04 08:00:35;;;;;;;12.77;5.23;;;;;;;3.56;100.00;114293.69;5012861;28;20029;-70
2022/04/04 08:03:00;;;;;;;9.00;5.10;;;;;;;3.64;100.00;110656.81;5012763;28;20446;-71
2022/04/04 08:05:26;;;;;;;8.77;5.47;;;;;;;3.67;100.00;104031.47;5012933;28;20022;-70
2022/04/04 08:07:52;;;;;;;8.47;4.97;;;;;;;3.68;100.00;101383.94;5013859;28;20048;-70
2022/04/04 08:10:18;;;;;;;8.80;4.63;;;;;;;3.73;100.00;96760.00;5011640;28;20048;-70
2022/04/04 08:12:47;;;;;;;8.37;4.37;;;;;;;3.74;100.00;91806.56;5031548;28;20422;-70
2022/04/04 08:15:12;;;;;;;9.97;5.47;;;;;;;3.72;100.00;88502.63;5012686;28;20030;-70
2022/04/04 08:17:38;;;;;;;10.33;5.13;;;;;;;3.75;100.00;87188.13;5017328;28;20155;-70
2022/04/04 08:20:05;;;;;;;11.03;5.47;;;;;;;3.78;100.00;84226.31;5032265;28;20025;-70
2022/04/04 08:22:36;;;;;;;7.10;4.53;;;;;;;3.83;100.00;86540.81;5032384;28;20036;-70
2022/04/04 08:25:02;;;;;;;10.82;5.10;;;;;;;3.90;100.00;86551.41;5031964;28;20040;-70
2022/04/04 08:27:27;;;;;;;12.60;6.90;;;;;;;3.91;100.00;84244.69;5032139;28;20042;-70
2022/04/04 08:29:52;;;;;;;12.40;5.17;;;;;;;4.03;100.00;87890.59;5014137;28;20040;-70
2022/04/04 08:32:18;;;;;;;11.00;5.40;;;;;;;4.02;100.00;84920.16;5032328;28;20384;-70
2022/04/04 08:34:43;;;;;;;13.63;5.40;;;;;;;4.15;100.00;88237.50;5013503;28;20545;-70
2022/04/04 08:37:09;;;;;;;9.03;4.60;;;;;;;4.17;100.00;84941.66;5031936;28;20025;-70
2022/04/04 08:39:34;;;;;;;7.80;5.10;;;;;;;4.14;100.00;84277.84;5015722;28;20034;-70
2022/04/04 08:42:02;;;;;;;10.53;5.77;;;;;;;4.18;100.00;83295.56;5012620;28;20076;-70
2022/04/04 08:44:28;;;;;;;11.43;5.70;;;;;;;4.18;100.00;82306.94;5012069;28;20040;-69
2022/04/04 08:46:53;;;;;;;10.47;6.20;;;;;;;4.20;100.00;83628.06;5012067;28;20034;-70
2022/04/04 08:49:19;;;;;;;9.50;5.37;;;;;;;4.25;100.00;87262.78;5012437;28;20084;-70
2022/04/04 08:51:44;;;;;;;11.20;5.40;;;;;;;4.21;100.00;86266.88;5012230;28;20022;-70
2022/04/04 08:54:10;;;;;;;11.70;6.73;;;;;;;4.25;100.00;90234.06;5011291;28;20030;-70
2022/04/04 08:56:35;;;;;;;11.87;6.23;;;;;;;4.16;100.00;90219.88;5012292;28;20030;-70
2022/04/04 08:59:01;;;;;;;11.63;5.77;;;;;;;4.04;100.00;88882.13;5012164;28;20061;-70
2022/04/04 09:01:27;;;;;;;9.20;5.23;;;;;;;4.00;100.00;92177.75;5012340;28;20029;-70
2022/04/04 09:04:01;;;;;;;11.70;6.07;;;;;;;4.09;100.00;97151.56;5011764;28;20049;-70
2022/04/04 09:06:28;;;;;;;9.60;5.50;;;;;;;4.09;100.00;99799.47;5011971;28;20484;-70
2022/04/04 09:08:54;;;;;;;10.63;6.57;;;;;;;4.08;100.00;101453.66;5011611;28;20033;-70
2022/04/04 09:11:21;;;;;;;11.90;5.30;;;;;;;4.08;100.00;105431.13;5011965;28;20104;-70
2022/04/04 09:14:03;;;;;;;11.53;6.50;;;;;;;4.04;100.00;109404.59;5011769;28;20441;-70
2022/04/04 09:16:28;;;;;;;11.23;6.45;;;;;;;3.98;100.00;114377.13;5012221;28;20093;-70
2022/04/04 09:18:53;;;;;;;14.90;7.27;;;;;;;3.90;100.00;117685.72;5011564;28;20486;-70
2022/04/04 09:21:19;;;;;;;9.90;5.90;;;;;;;3.85;100.00;121336.81;5011700;28;20101;-70
2022/04/04 09:23:44;;;;;;;11.07;6.70;;;;;;;3.79;100.00;124656.72;5011815;28;20068;-70
2022/04/04 09:26:32;;;;;;;16.33;9.57;;;;;;;3.71;100.00;127973.56;5011591;28;20056;-70
2022/04/04 09:29:19;;;;;;;12.00;6.63;;;;;;;3.68;100.00;131304.06;5011552;28;20053;-70
2022/04/04 09:31:55;;;;;;;12.73;7.63;;;;;;;3.68;100.00;134311.34;5012039;28;20037;-70
2022/04/04 09:34:20;;;;;;;13.23;7.40;;;;;;;3.75;100.00;136666.63;5014189;28;20030;-71
2022/04/04 09:36:47;;;;;;;14.97;8.57;;;;;;;3.78;100.00;138347.53;5011906;28;20033;-71
2022/04/04 09:39:14;;;;;;;15.00;9.40;;;;;;;3.78;100.00;139686.16;5015577;28;20061;-70
2022/04/04 09:41:40;;;;;;;14.90;8.70;;;;;;;3.75;100.00;141017.91;5011765;28;20025;-70
2022/04/04 09:44:07;;;;;;;16.27;10.00;;;;;;;3.74;100.00;142018.84;5011356;28;20429;-71
2022/04/04 09:46:37;;;;;;;13.80;8.13;;;;;;;3.75;100.00;143026.19;5011187;28;20487;-71
2022/04/04 09:49:16;;;;;;;13.23;7.07;;;;;;;3.77;100.00;144706.72;5011270;28;20033;-71
2022/04/04 09:51:53;;;;;;;11.97;6.23;;;;;;;3.80;100.00;145049.47;5013738;28;20046;-70
2022/04/04 09:54:18;;;;;;;14.50;9.20;;;;;;;3.80;100.00;147061.41;5011223;28;20026;-70
2022/04/04 09:56:46;;;;;;;12.63;7.83;;;;;;;3.86;100.00;148083.22;5011627;28;20048;-70
2022/04/04 09:59:14;;;;;;;14.17;9.40;;;;;;;3.91;100.00;147759.25;5013741;28;20065;-70
2022/04/04 10:01:41;;;;;;;15.23;10.00;;;;;;;3.96;100.00;147436.50;5011536;28;20054;-70
2022/04/04 10:04:08;;;;;;;17.03;10.90;;;;;;;4.03;100.00;146783.31;5012543;28;20029;-70
2022/04/04 10:06:34;;;;;;;16.07;8.23;;;;;;;4.13;100.00;145465.47;5021711;28;20025;-70
2022/04/04 10:09:02;;;;;;;15.50;9.30;;;;;;;4.23;100.00;144819.72;5023488;28;20112;-70
2022/04/04 10:11:30;;;;;;;15.13;7.97;;;;;;;4.28;100.00;143155.31;5014885;28;20040;-70
2022/04/04 10:13:57;;;;;;;12.67;7.90;;;;;;;4.30;100.00;142154.44;5014905;28;20033;-70
2022/04/04 10:16:24;;;;;;;17.27;10.20;;;;;;;4.34;100.00;142164.28;5031016;28;20164;-70
2022/04/04 10:18:51;;;;;;;14.03;8.17;;;;;;;4.31;100.00;141821.69;5034282;28;20037;-70
2022/04/04 10:21:18;;;;;;;12.33;7.33;;;;;;;4.32;100.00;141824.13;5034716;28;20022;-70
2022/04/04 10:23:46;;;;;;;12.00;7.87;;;;;;;4.29;100.00;141482.81;5034458;28;20095;-70
2022/04/04 10:26:15;;;;;;;13.73;8.73;;;;;;;4.30;100.00;141150.09;5034341;28;20036;-70
2022/04/04 10:28:44;;;;;;;13.00;7.90;;;;;;;4.27;100.00;142147.06;5033438;28;20040;-70
2022/04/04 10:31:20;;;;;;;13.50;7.90;;;;;;;4.27;100.00;142482.28;5034333;28;20029;-71
2022/04/04 10:33:48;;;;;;;11.93;6.80;;;;;;;4.27;100.00;142817.56;5033933;28;20033;-70
2022/04/04 10:36:20;;;;;;;12.47;7.47;;;;;;;4.32;100.00;143165.25;5034526;28;20363;-70
2022/04/04 10:38:47;;;;;;;;;;;;;;;4.35;100.00;144514.34;5007441;28;20037;-71
2022/04/04 10:41:26;;;;;;;13.47;7.43;;;;;;;4.33;100.00;145180.34;5014344;28;20008;-70
2022/04/04 10:43:53;;;;;;;13.10;7.77;;;;;;;4.30;100.00;147186.47;5014516;28;20084;-71
2022/04/04 10:46:20;;;;;;;13.33;8.40;;;;;;;4.31;100.00;148196.31;5014420;28;20115;-70
2022/04/04 10:48:56;;;;;;;17.83;11.70;;;;;;;4.26;100.00;148521.88;5014571;28;20441;-70
2022/04/04 10:51:31;;;;;;;14.93;8.50;;;;;;;4.20;100.00;148506.41;5014596;28;20505;-71
2022/04/04 10:54:02;;;;;;;16.70;9.50;;;;;;;4.22;100.00;148511.56;5013986;28;20153;-71
2022/04/04 10:56:29;;;;;;;14.07;7.33;;;;;;;4.20;100.00;148506.41;5014760;28;20092;-71
2022/04/04 10:59:20;;;;;;;17.37;10.17;;;;;;;4.23;100.00;148515.41;5013995;28;20028;-71
2022/04/04 11:01:54;;;;;;;15.13;8.60;;;;;;;4.29;100.00;148529.59;5014184;28;20104;-71
2022/04/04 11:04:37;;;;;;;13.47;7.00;;;;;;;4.27;100.00;148524.47;5014245;28;20026;-71
2022/04/04 11:09:55;;;;;;;15.88;10.15;;;;;;;4.31;100.00;148534.75;5013983;28;20520;-71
2022/04/04 11:12:24;;;;;;;22.53;12.67;;;;;;;4.34;100.00;148543.75;5013687;28;20030;-71
2022/04/04 11:15:03;;;;;;;18.70;11.73;;;;;;;4.33;100.00;148539.91;5014109;28;20096;-71
2022/04/04 11:17:36;;;;;;;15.53;7.87;;;;;;;4.32;100.00;148538.59;5013435;28;20080;-72
2022/04/04 11:20:21;;;;;;;19.33;11.57;;;;;;;4.38;100.00;148552.81;5013844;28;20037;-71
2022/04/04 11:22:52;;;;;;;11.43;6.80;;;;;;;4.43;100.00;148565.66;5013536;28;20053;-71
2022/04/04 11:25:20;;;;;;;14.83;9.17;;;;;;;4.41;100.00;148560.53;5013616;28;20026;-71